createdAt,value
2023-02-17T00:01:27.456Z,96.99
2023-02-17T00:03:55.483Z,97.28
2023-02-17T00:06:29.405Z,97.03
2023-02-17T00:08:58.000Z,96.50
2023-02-17T00:11:25.474Z,96.98
2023-02-17T00:13:56.143Z,96.32
2023-02-17T00:16:25.394Z,96.61
2023-02-17T00:18:54.867Z,96.65
2023-02-17T00:21:23.961Z,96.54
2023-02-17T00:23:53.330Z,96.60
2023-02-17T00:26:21.518Z,97.29
2023-02-17T00:28:49.596Z,96.99
2023-02-17T00:31:20.018Z,97.71
2023-02-17T00:33:47.713Z,97.97
2023-02-17T00:36:17.685Z,97.04
2023-02-17T00:38:45.232Z,97.48
2023-02-17T00:41:14.042Z,97.39
2023-02-17T00:43:41.494Z,97.50
2023-02-17T00:46:09.328Z,96.81
2023-02-17T00:48:36.944Z,97.60
2023-02-17T00:51:04.782Z,97.16
2023-02-17T00:53:32.335Z,97.14
2023-02-17T00:55:59.967Z,97.04
2023-02-17T00:58:28.983Z,96.44
2023-02-17T01:00:56.957Z,96.21
2023-02-17T01:03:25.080Z,96.69
2023-02-17T01:05:52.800Z,96.84
2023-02-17T01:08:20.257Z,96.86
2023-02-17T01:10:48.691Z,97.35
2023-02-17T01:13:17.500Z,97.83
2023-02-17T01:15:48.683Z,97.61
2023-02-17T01:18:16.460Z,98.35
2023-02-17T01:20:44.475Z,98.01
2023-02-17T01:23:12.876Z,97.62
2023-02-17T01:25:41.332Z,97.55
2023-02-17T01:28:09.663Z,97.45
2023-02-17T01:30:37.118Z,97.49
2023-02-17T01:33:06.023Z,97.41
2023-02-17T01:35:34.374Z,96.53
2023-02-17T01:38:01.953Z,97.28
2023-02-17T01:40:30.177Z,96.76
2023-02-17T01:42:57.703Z,96.40
2023-02-17T01:45:35.245Z,96.25
2023-02-17T01:48:08.988Z,96.84
2023-02-17T01:50:40.353Z,96.56
2023-02-17T01:53:08.982Z,96.21
2023-02-17T01:55:38.672Z,95.88
2023-02-17T01:58:08.754Z,96.14
2023-02-17T02:00:36.993Z,96.08
2023-02-17T02:03:05.533Z,95.60
2023-02-17T02:05:36.540Z,95.73
2023-02-17T02:08:05.628Z,96.02
2023-02-17T02:10:33.139Z,95.83
2023-02-17T02:13:00.898Z,95.50
2023-02-17T02:15:32.883Z,95.56
2023-02-17T02:18:22.946Z,95.67
2023-02-17T02:21:19.627Z,95.69
2023-02-17T02:23:54.269Z,95.83
2023-02-17T02:26:59.138Z,96.38
2023-02-17T02:29:47.739Z,96.03
2023-02-17T02:32:40.886Z,96.61
2023-02-17T02:35:10.874Z,95.96
2023-02-17T02:37:42.024Z,96.27
2023-02-17T02:40:11.704Z,96.25
2023-02-17T02:42:40.188Z,95.95
2023-02-17T02:45:09.189Z,95.81
2023-02-17T02:47:44.422Z,95.56
2023-02-17T02:50:13.457Z,95.46
2023-02-17T02:52:49.283Z,95.80
2023-02-17T02:55:20.259Z,95.18
2023-02-17T02:57:53.788Z,95.33
2023-02-17T03:00:25.178Z,94.95
2023-02-17T03:02:57.206Z,95.35
2023-02-17T03:05:29.768Z,95.20
2023-02-17T03:08:00.307Z,95.12
2023-02-17T03:10:27.822Z,95.24
2023-02-17T03:12:55.326Z,95.01
2023-02-17T03:15:27.018Z,94.99
2023-02-17T03:17:57.455Z,94.56
2023-02-17T03:20:25.031Z,95.10
2023-02-17T03:22:52.608Z,95.17
2023-02-17T03:25:20.161Z,95.38
2023-02-17T03:27:47.677Z,95.51
2023-02-17T03:30:15.293Z,94.30
2023-02-17T03:32:42.902Z,93.97
2023-02-17T03:35:12.055Z,94.13
2023-02-17T03:37:39.584Z,93.38
2023-02-17T03:40:09.023Z,94.12
2023-02-17T03:42:37.009Z,93.82
2023-02-17T03:45:04.726Z,94.05
2023-02-17T03:47:32.606Z,93.76
2023-02-17T03:50:00.083Z,94.04
2023-02-17T03:52:28.946Z,94.01
2023-02-17T03:54:56.400Z,94.05
2023-02-17T03:57:23.907Z,94.50
2023-02-17T03:59:51.578Z,94.04
2023-02-17T04:02:19.052Z,94.34
2023-02-17T04:04:46.536Z,95.00
2023-02-17T04:07:14.292Z,95.67
2023-02-17T04:09:43.223Z,95.46
2023-02-17T04:12:10.710Z,95.09
2023-02-17T04:14:38.161Z,95.28
2023-02-17T04:17:05.630Z,95.08
2023-02-17T04:19:33.082Z,95.01
2023-02-17T04:22:00.517Z,95.31
2023-02-17T04:24:27.995Z,95.27
2023-02-17T04:26:56.821Z,95.03
2023-02-17T04:29:24.294Z,95.30
2023-02-17T04:31:51.886Z,94.98
2023-02-17T04:34:19.464Z,94.78
2023-02-17T04:36:46.928Z,94.84
2023-02-17T04:39:14.420Z,95.53
2023-02-17T04:41:41.883Z,95.70
2023-02-17T04:44:11.560Z,94.70
2023-02-17T04:46:39.179Z,94.77
2023-02-17T04:49:06.787Z,94.29
2023-02-17T04:51:34.371Z,94.40
2023-02-17T04:54:02.546Z,94.65
2023-02-17T04:56:30.207Z,94.12
2023-02-17T04:58:57.962Z,94.63
2023-02-17T05:01:27.023Z,94.32
2023-02-17T05:03:55.125Z,93.69
2023-02-17T05:06:23.929Z,93.54
2023-02-17T05:08:53.603Z,93.31
2023-02-17T05:11:21.500Z,93.50
2023-02-17T05:13:49.913Z,94.13
2023-02-17T05:16:17.893Z,93.79
2023-02-17T05:18:46.800Z,92.98
2023-02-17T05:21:14.298Z,94.00
2023-02-17T05:23:42.174Z,93.83
2023-02-17T05:26:10.187Z,94.40
2023-02-17T05:28:38.177Z,94.21
2023-02-17T05:31:06.523Z,94.05
2023-02-17T05:33:34.124Z,93.78
2023-02-17T05:36:05.601Z,94.55
2023-02-17T05:38:34.718Z,94.68
2023-02-17T05:41:02.365Z,94.72
2023-02-17T05:43:29.918Z,94.10
2023-02-17T05:45:57.418Z,95.14
2023-02-17T05:48:24.923Z,94.63
2023-02-17T05:50:52.412Z,94.38
2023-02-17T05:53:21.416Z,94.55
2023-02-17T05:55:48.971Z,94.50
2023-02-17T05:58:16.442Z,93.74
2023-02-17T06:00:43.932Z,94.33
2023-02-17T06:03:11.461Z,94.62
2023-02-17T06:05:39.237Z,95.00
2023-02-17T06:08:07.135Z,94.03
2023-02-17T06:10:35.990Z,94.84
2023-02-17T06:13:03.490Z,94.99
2023-02-17T06:15:31.177Z,94.78
2023-02-17T06:17:58.637Z,94.94
2023-02-17T06:20:26.140Z,95.29
2023-02-17T06:22:53.616Z,94.65
2023-02-17T06:25:21.079Z,94.91
2023-02-17T06:27:49.924Z,94.89
2023-02-17T06:30:17.558Z,94.51
2023-02-17T06:32:45.110Z,94.59
2023-02-17T06:35:12.601Z,95.07
2023-02-17T06:37:40.093Z,95.97
2023-02-17T06:40:08.774Z,95.02
2023-02-17T06:42:36.306Z,95.92
2023-02-17T06:45:06.130Z,95.96
2023-02-17T06:47:33.675Z,95.71
2023-02-17T06:50:01.197Z,95.92
2023-02-17T06:52:28.973Z,96.04
2023-02-17T06:54:56.519Z,95.83
2023-02-17T06:57:24.544Z,95.69
2023-02-17T06:59:52.043Z,95.21
2023-02-17T07:02:21.155Z,96.08
2023-02-17T07:04:49.048Z,96.19
2023-02-17T07:07:16.629Z,97.01
2023-02-17T07:09:44.491Z,95.89
2023-02-17T07:12:12.008Z,96.39
2023-02-17T07:14:39.603Z,95.75
2023-02-17T07:17:07.163Z,96.19
2023-02-17T07:19:35.995Z,96.57
2023-02-17T07:22:03.676Z,96.03
2023-02-17T07:24:31.187Z,96.62
2023-02-17T07:26:58.662Z,97.11
2023-02-17T07:29:26.131Z,97.15
2023-02-17T07:31:53.800Z,96.87
2023-02-17T07:34:22.746Z,96.33
2023-02-17T07:36:51.558Z,96.73
2023-02-17T07:39:19.012Z,96.62
2023-02-17T07:41:46.597Z,97.12
2023-02-17T07:44:14.558Z,95.90
2023-02-17T07:46:42.083Z,96.01
2023-02-17T07:49:09.806Z,96.42
2023-02-17T07:51:37.309Z,95.60
2023-02-17T07:54:06.661Z,96.21
2023-02-17T07:56:34.144Z,96.69
2023-02-17T07:59:01.684Z,96.06
2023-02-17T08:01:29.161Z,95.41
2023-02-17T08:03:57.384Z,96.17
2023-02-17T08:06:26.215Z,95.99
2023-02-17T08:09:12.112Z,95.74
2023-02-17T08:11:59.360Z,95.38
2023-02-17T08:14:29.039Z,94.70
2023-02-17T08:16:56.744Z,95.40
2023-02-17T08:19:27.197Z,94.59
2023-02-17T08:22:00.002Z,93.67
2023-02-17T08:24:27.594Z,93.75
2023-02-17T08:26:56.660Z,93.34
2023-02-17T08:29:24.218Z,93.16
2023-02-17T08:31:53.558Z,92.47
2023-02-17T08:34:21.194Z,93.36
2023-02-17T08:36:48.880Z,92.40
2023-02-17T08:39:18.600Z,92.52
2023-02-17T08:41:46.589Z,91.77
2023-02-17T08:44:17.623Z,92.26
2023-02-17T08:46:47.899Z,92.38
2023-02-17T08:49:16.123Z,91.80
2023-02-17T08:51:44.109Z,91.46
2023-02-17T08:54:11.967Z,91.07
2023-02-17T08:56:40.513Z,91.01
2023-02-17T08:59:09.299Z,90.72
2023-02-17T09:01:38.327Z,91.26
2023-02-17T09:04:07.610Z,91.47
2023-02-17T09:06:36.566Z,91.39
2023-02-17T09:09:04.843Z,91.92
2023-02-17T09:11:32.356Z,92.74
2023-02-17T09:13:59.940Z,94.00
2023-02-17T09:16:27.624Z,94.45
2023-02-17T09:18:56.638Z,94.74
2023-02-17T09:21:24.366Z,95.19
2023-02-17T09:23:53.656Z,94.56
2023-02-17T09:26:21.573Z,94.88
2023-02-17T09:28:49.467Z,95.59
2023-02-17T09:31:19.241Z,95.98
2023-02-17T09:33:48.321Z,95.08
2023-02-17T09:36:19.019Z,95.81
2023-02-17T09:38:46.640Z,96.29
2023-02-17T09:41:19.460Z,95.67
2023-02-17T09:43:47.014Z,95.77
2023-02-17T09:46:18.152Z,95.82
2023-02-17T09:48:47.781Z,95.74
2023-02-17T09:51:22.160Z,95.42
2023-02-17T09:53:53.149Z,94.94
2023-02-17T09:56:24.713Z,95.38
2023-02-17T09:58:54.980Z,95.65
2023-02-17T10:01:25.531Z,94.59
2023-02-17T10:04:07.443Z,94.92
2023-02-17T10:06:38.490Z,94.57
2023-02-17T10:09:12.830Z,94.76
2023-02-17T10:11:43.497Z,94.42
2023-02-17T10:14:13.661Z,94.70
2023-02-17T10:16:47.030Z,93.45
2023-02-17T10:19:18.325Z,93.84
2023-02-17T10:21:50.628Z,93.87
2023-02-17T10:24:18.133Z,93.70
2023-02-17T10:26:54.555Z,93.25
2023-02-17T10:29:32.879Z,92.99
2023-02-17T10:32:12.553Z,93.26
2023-02-17T10:34:44.013Z,92.79
2023-02-17T10:37:15.807Z,91.98
2023-02-17T10:39:48.427Z,91.79
2023-02-17T10:42:22.307Z,92.02
2023-02-17T10:44:51.300Z,91.49
2023-02-17T10:47:19.115Z,90.51
2023-02-17T10:49:49.494Z,90.72
2023-02-17T10:52:19.885Z,89.53
2023-02-17T10:54:51.840Z,89.56
2023-02-17T10:57:21.005Z,89.69
2023-02-17T10:59:49.479Z,88.53
2023-02-17T11:02:19.918Z,88.69
2023-02-17T11:04:49.741Z,88.15
2023-02-17T11:07:20.220Z,87.09
2023-02-17T11:09:49.265Z,86.79
2023-02-17T11:12:20.416Z,86.83
2023-02-17T11:14:49.820Z,85.86
2023-02-17T11:17:22.828Z,85.18
2023-02-17T11:19:59.216Z,85.35
2023-02-17T11:22:35.302Z,85.33
2023-02-17T11:25:06.463Z,84.94
2023-02-17T11:27:33.981Z,83.92
2023-02-17T11:30:10.794Z,84.05
2023-02-17T11:32:38.384Z,83.83
2023-02-17T11:35:06.289Z,83.92
2023-02-17T11:37:39.206Z,83.88
2023-02-17T11:40:26.050Z,83.28
2023-02-17T11:42:58.372Z,82.72
2023-02-17T11:45:27.541Z,82.63
2023-02-17T11:48:06.150Z,82.68
2023-02-17T11:50:41.709Z,82.71
2023-02-17T11:53:24.941Z,82.81
2023-02-17T11:56:03.338Z,82.33
2023-02-17T11:58:40.216Z,81.78
2023-02-17T12:01:21.283Z,81.57
2023-02-17T12:04:05.536Z,81.05
2023-02-17T12:06:39.838Z,80.66
2023-02-17T12:09:16.176Z,80.46
2023-02-17T12:11:48.892Z,80.17
2023-02-17T12:14:44.238Z,80.78
2023-02-17T12:17:18.110Z,80.32
2023-02-17T12:19:51.057Z,80.69
2023-02-17T12:22:20.321Z,80.72
2023-02-17T12:25:16.810Z,81.04
2023-02-17T12:27:51.710Z,80.66
2023-02-17T12:30:27.905Z,80.59
2023-02-17T12:33:09.800Z,79.91
2023-02-17T12:35:44.016Z,79.62
2023-02-17T12:38:13.255Z,80.16
2023-02-17T12:40:46.103Z,80.33
2023-02-17T12:43:23.859Z,80.80
2023-02-17T12:45:52.405Z,80.08
2023-02-17T12:48:26.730Z,80.42
2023-02-17T12:50:58.992Z,81.13
2023-02-17T12:53:34.682Z,80.84
2023-02-17T12:56:05.891Z,80.85
2023-02-17T12:58:34.247Z,80.55
2023-02-17T13:01:07.199Z,80.80
2023-02-17T13:03:36.147Z,80.56
2023-02-17T13:06:07.437Z,80.35
2023-02-17T13:08:38.170Z,80.49
2023-02-17T13:11:11.738Z,80.30
2023-02-17T13:13:39.290Z,80.57
2023-02-17T13:16:11.136Z,80.94
2023-02-17T13:18:40.383Z,80.96
2023-02-17T13:21:20.398Z,81.20
2023-02-17T13:24:00.860Z,81.04
2023-02-17T13:26:31.766Z,81.39
2023-02-17T13:29:22.292Z,80.74
2023-02-17T13:31:52.399Z,80.96
2023-02-17T13:34:32.726Z,81.04
2023-02-17T13:37:03.352Z,81.42
2023-02-17T13:39:36.848Z,81.73
2023-02-17T13:42:25.526Z,81.40
2023-02-17T13:44:53.084Z,81.37
2023-02-17T13:47:32.574Z,81.88
2023-02-17T13:50:00.047Z,81.77
2023-02-17T13:52:29.120Z,81.82
2023-02-17T13:54:58.849Z,82.47
2023-02-17T13:57:30.188Z,82.62
2023-02-17T14:00:07.681Z,83.08
2023-02-17T14:02:38.465Z,82.85
2023-02-17T14:05:15.949Z,82.92
2023-02-17T14:07:43.436Z,82.69
2023-02-17T14:10:19.141Z,82.57
2023-02-17T14:12:48.961Z,83.01
2023-02-17T14:15:18.026Z,83.31
2023-02-17T14:17:45.707Z,83.59
2023-02-17T14:20:30.364Z,83.47
2023-02-17T14:23:04.781Z,83.13
2023-02-17T14:25:35.113Z,82.71
2023-02-17T14:28:04.580Z,82.96
2023-02-17T14:30:35.423Z,82.87
2023-02-17T14:33:07.815Z,82.54
2023-02-17T14:35:36.115Z,82.67
2023-02-17T14:38:20.651Z,81.91
2023-02-17T14:40:48.295Z,82.14
2023-02-17T14:43:17.231Z,82.50
2023-02-17T14:45:44.699Z,82.77
2023-02-17T14:48:12.265Z,82.88
2023-02-17T14:50:42.387Z,82.32
2023-02-17T14:53:13.206Z,82.49
2023-02-17T14:55:45.584Z,82.88
2023-02-17T14:58:20.984Z,82.76
2023-02-17T15:00:48.984Z,82.68
2023-02-17T15:03:16.510Z,82.97
2023-02-17T15:05:44.220Z,82.63
2023-02-17T15:08:14.324Z,82.89
2023-02-17T15:10:41.899Z,82.72
2023-02-17T15:13:12.266Z,82.72
2023-02-17T15:15:44.737Z,83.29
2023-02-17T15:18:12.703Z,83.23
2023-02-17T15:20:42.531Z,83.54
2023-02-17T15:23:13.089Z,82.78
2023-02-17T15:25:40.668Z,83.33
2023-02-17T15:28:08.357Z,83.08
2023-02-17T15:30:37.421Z,82.85
2023-02-17T15:33:09.882Z,83.12
2023-02-17T15:35:37.448Z,83.37
2023-02-17T15:38:05.103Z,83.35
2023-02-17T15:40:34.697Z,83.04
2023-02-17T15:43:03.485Z,83.30
2023-02-17T15:45:31.646Z,83.17
2023-02-17T15:48:08.821Z,82.98
2023-02-17T15:50:40.139Z,83.05
2023-02-17T15:53:07.794Z,83.26
2023-02-17T15:55:36.113Z,82.99
2023-02-17T15:58:05.236Z,82.99
2023-02-17T16:00:34.514Z,83.24
2023-02-17T16:03:02.534Z,82.95
2023-02-17T16:05:30.933Z,82.76
2023-02-17T16:08:00.049Z,82.74
2023-02-17T16:10:28.342Z,82.40
2023-02-17T16:12:57.441Z,83.00
2023-02-17T16:15:26.220Z,82.94
2023-02-17T16:17:55.696Z,83.10
2023-02-17T16:20:24.336Z,82.80
2023-02-17T16:22:52.640Z,83.22
2023-02-17T16:25:22.774Z,83.25
2023-02-17T16:28:10.711Z,82.81
2023-02-17T16:30:38.567Z,83.24
2023-02-17T16:33:07.035Z,83.51
2023-02-17T16:35:34.771Z,83.15
2023-02-17T16:38:04.196Z,83.16
2023-02-17T16:40:36.037Z,83.71
2023-02-17T16:43:04.321Z,83.27
2023-02-17T16:45:33.353Z,83.43
2023-02-17T16:48:01.930Z,83.74
2023-02-17T16:50:31.445Z,83.85
2023-02-17T16:53:01.413Z,83.44
2023-02-17T16:55:31.695Z,83.74
2023-02-17T16:58:01.000Z,83.62
2023-02-17T17:00:31.394Z,83.68
2023-02-17T17:02:59.657Z,83.69
2023-02-17T17:05:28.936Z,83.44
2023-02-17T17:07:57.050Z,83.66
2023-02-17T17:10:26.485Z,83.97
2023-02-17T17:12:54.319Z,83.69
2023-02-17T17:15:23.593Z,83.82
2023-02-17T17:17:54.523Z,83.60
2023-02-17T17:20:27.382Z,84.13
2023-02-17T17:22:55.096Z,83.53
2023-02-17T17:25:22.698Z,83.39
2023-02-17T17:27:58.594Z,84.02
2023-02-17T17:30:31.748Z,83.76
2023-02-17T17:32:59.754Z,84.23
2023-02-17T17:35:28.036Z,84.26
2023-02-17T17:37:59.928Z,84.21
2023-02-17T17:40:30.027Z,84.84
2023-02-17T17:42:57.774Z,84.53
2023-02-17T17:45:28.066Z,84.29
2023-02-17T17:47:55.696Z,84.68
2023-02-17T17:50:25.677Z,84.75
2023-02-17T17:52:53.551Z,84.97
2023-02-17T17:55:21.150Z,84.98
2023-02-17T17:57:49.320Z,84.54
2023-02-17T18:00:18.277Z,84.53
2023-02-17T18:02:47.262Z,84.69
2023-02-17T18:05:16.863Z,84.71
2023-02-17T18:07:50.364Z,83.98
2023-02-17T18:10:17.989Z,83.82
2023-02-17T18:12:46.645Z,84.43
2023-02-17T18:15:15.055Z,84.58
2023-02-17T18:17:43.430Z,84.26
2023-02-17T18:20:13.204Z,84.50
2023-02-17T18:22:40.860Z,83.73
2023-02-17T18:25:09.163Z,84.32
2023-02-17T18:27:41.253Z,84.29
2023-02-17T18:30:11.282Z,84.27
2023-02-17T18:32:38.749Z,83.66
2023-02-17T18:35:06.649Z,84.28
2023-02-17T18:37:35.781Z,85.38
2023-02-17T18:40:04.302Z,86.10
2023-02-17T18:42:32.591Z,86.15
2023-02-17T18:45:00.187Z,85.72
2023-02-17T18:47:27.793Z,85.69
2023-02-17T18:49:55.538Z,85.78
2023-02-17T18:52:23.223Z,85.28
2023-02-17T18:54:52.194Z,85.17
2023-02-17T18:57:19.873Z,85.17
2023-02-17T18:59:47.495Z,85.09
2023-02-17T19:02:15.495Z,84.86
2023-02-17T19:04:43.437Z,84.36
2023-02-17T19:07:12.471Z,84.57
2023-02-17T19:09:42.702Z,84.44
2023-02-17T19:12:13.527Z,83.97
2023-02-17T19:14:44.684Z,83.96
2023-02-17T19:17:13.049Z,84.14
2023-02-17T19:19:43.263Z,83.70
2023-02-17T19:22:17.348Z,83.83
2023-02-17T19:24:46.691Z,83.44
2023-02-17T19:27:17.840Z,83.26
2023-02-17T19:29:45.497Z,82.98
2023-02-17T19:32:16.129Z,83.02
2023-02-17T19:34:46.080Z,82.92
2023-02-17T19:37:15.415Z,83.67
2023-02-17T19:39:45.305Z,83.74
2023-02-17T19:42:15.429Z,82.92
2023-02-17T19:44:44.502Z,82.84
2023-02-17T19:47:14.810Z,82.84
2023-02-17T19:49:42.445Z,82.68
2023-02-17T19:52:14.533Z,82.60
2023-02-17T19:54:42.138Z,83.06
2023-02-17T19:57:09.890Z,82.92
2023-02-17T19:59:40.238Z,83.33
2023-02-17T20:02:13.039Z,84.43
2023-02-17T20:04:40.702Z,85.61
2023-02-17T20:07:08.444Z,85.73
2023-02-17T20:09:38.292Z,86.13
2023-02-17T20:12:08.762Z,86.72
2023-02-17T20:14:38.444Z,86.55
2023-02-17T20:17:06.090Z,86.65
2023-02-17T20:19:37.738Z,86.57
2023-02-17T20:22:05.492Z,86.90
2023-02-17T20:24:35.225Z,87.29
2023-02-17T20:27:03.134Z,87.24
2023-02-17T20:29:31.140Z,88.61
2023-02-17T20:31:58.908Z,88.72
2023-02-17T20:34:29.832Z,89.25
2023-02-17T20:37:00.572Z,88.61
2023-02-17T20:39:33.467Z,89.33
2023-02-17T20:42:01.636Z,89.81
2023-02-17T20:44:32.081Z,90.19
2023-02-17T20:47:02.947Z,90.58
2023-02-17T20:49:30.653Z,91.17
2023-02-17T20:51:59.805Z,90.81
2023-02-17T20:54:27.482Z,90.34
2023-02-17T20:56:57.773Z,90.50
2023-02-17T20:59:25.696Z,89.37
2023-02-17T21:01:53.333Z,88.18
2023-02-17T21:04:20.920Z,87.79
2023-02-17T21:06:48.553Z,87.68
2023-02-17T21:09:19.154Z,87.28
2023-02-17T21:11:47.826Z,87.61
2023-02-17T21:14:15.908Z,86.70
2023-02-17T21:16:43.551Z,86.72
2023-02-17T21:19:11.147Z,86.41
2023-02-17T21:21:41.034Z,85.85
2023-02-17T21:24:08.853Z,86.12
2023-02-17T21:26:37.895Z,86.41
2023-02-17T21:29:08.575Z,85.87
2023-02-17T21:31:37.077Z,85.89
2023-02-17T21:34:05.174Z,85.92
2023-02-17T21:36:35.281Z,85.93
2023-02-17T21:39:04.195Z,85.38
2023-02-17T21:41:32.581Z,85.69
2023-02-17T21:44:18.878Z,85.81
2023-02-17T21:46:48.103Z,86.31
2023-02-17T21:49:15.947Z,85.83
2023-02-17T21:51:43.495Z,86.20
2023-02-17T21:54:11.523Z,85.96
2023-02-17T21:56:39.489Z,86.85
2023-02-17T21:59:08.973Z,86.55
2023-02-17T22:01:36.579Z,86.51
2023-02-17T22:04:04.603Z,86.06
2023-02-17T22:06:39.264Z,86.91
2023-02-17T22:09:08.066Z,86.79
2023-02-17T22:11:37.153Z,86.43
2023-02-17T22:14:06.192Z,86.39
2023-02-17T22:16:37.762Z,88.16
2023-02-17T22:19:07.035Z,88.24
2023-02-17T22:21:34.948Z,88.61
2023-02-17T22:24:03.420Z,88.75
2023-02-17T22:26:31.232Z,88.60
2023-02-17T22:28:58.775Z,89.38
2023-02-17T22:31:28.291Z,89.22
2023-02-17T22:33:58.153Z,88.94
2023-02-17T22:36:27.440Z,89.73
2023-02-17T22:38:55.554Z,88.81
2023-02-17T22:41:24.572Z,89.80
2023-02-17T22:43:52.782Z,90.56
2023-02-17T22:46:21.922Z,90.27
2023-02-17T22:48:51.903Z,90.10
2023-02-17T22:51:22.408Z,91.00
2023-02-17T22:53:50.290Z,89.49
2023-02-17T22:56:17.876Z,90.36
2023-02-17T22:58:45.391Z,90.32
2023-02-17T23:01:14.795Z,91.05
2023-02-17T23:03:43.126Z,90.83
2023-02-17T23:06:13.460Z,90.54
2023-02-17T23:08:44.392Z,91.11
2023-02-17T23:11:13.954Z,91.26
2023-02-17T23:13:41.762Z,91.29
2023-02-17T23:16:11.704Z,92.20
2023-02-17T23:18:39.393Z,93.03
2023-02-17T23:21:12.442Z,93.88
2023-02-17T23:23:40.350Z,94.19
2023-02-17T23:26:09.603Z,94.43
2023-02-17T23:28:37.411Z,94.63
2023-02-17T23:31:05.060Z,92.45
2023-02-17T23:33:32.546Z,92.99
2023-02-17T23:36:00.054Z,93.62
2023-02-17T23:38:27.532Z,93.82
2023-02-17T23:40:56.138Z,92.43
2023-02-17T23:43:25.202Z,93.41
2023-02-17T23:45:56.214Z,92.96
2023-02-17T23:48:23.810Z,93.94
2023-02-17T23:50:56.509Z,92.69
2023-02-17T23:53:24.197Z,92.78
2023-02-17T23:56:01.312Z,93.89
2023-02-17T23:58:30.212Z,93.89
